首页
METAR-TAF:

METAR-TAF

机场 :

卡斯特里, 圣卢西亚

纬度: 14-01N, 经度: 061-00W, 海拔: 2米

当前天气观测

该预报发布于8小时和50分钟前的00:00 UTC
风速8节,风向
温度 28°C
湿度 74%
气压 1013 hPa
能见度10公里或以上
少量云层高于2400英尺

METAR: TLPC 220000Z 10008KT 9999 FEW024 28/23 Q1013 NOSIG

时间: 04:50 (08:50 UTC)

预报

该预报发布于3小时和50分钟前的05:00 UTC
预报有效从22日的 06点(UTC)到 23日的 06点(UTC)
风速9节,风向
能见度10公里或以上
散云层高于2500英尺

TAF: TLPC 220500Z 2206/2306 10009KT 9999 SCT025

超过4000个机场的气象观测和天气预报(METAR&TAF报告)。

可查询的气象台以黄色和红色小点在地图上表示。

将鼠标移到小点上方,可查看气象台名称。

然后点击查看天气观测和预报。

如需切换地图:点击带黑十字的绿色按钮放大地图;点击带横线的绿色按钮缩小地图;或者点击绿色箭头查看邻近地区的地图。


METAR-TAF: